Time;durP1;ratioP1;P1;durP2;ratioP2;P2;SDS_P1;SDS_P2;PMS_P1;PMS_P2;Temp;Humidity;BMP_temperature;BMP_pressure;BME280_temperature;BME280_humidity;BME280_pressure;Samples;Min_cycle;Max_cycle;Signal;HPM_P1;HPM_P2
2022/05/23 00:00:57;;;;;;;38.78;15.85;;;;;;;;;;5034047;28;20096;-67
2022/05/23 00:03:23;;;;;;;34.35;15.68;;;;;;;;;;5032264;28;20030;-67
2022/05/23 00:05:49;;;;;;;41.60;15.68;;;;;;;;;;5033666;28;20044;-67
2022/05/23 00:08:15;;;;;;;31.83;15.07;;;;;;;;;;5033107;28;20043;-66
2022/05/23 00:10:42;;;;;;;41.03;17.00;;;;;;;;;;5033574;28;20109;-67
2022/05/23 00:13:08;;;;;;;40.50;17.05;;;;;;;;;;5035249;28;20501;-67
2022/05/23 00:15:34;;;;;;;42.65;17.05;;;;;;;;;;5033558;28;20035;-67
2022/05/23 00:18:01;;;;;;;39.88;16.85;;;;;;;;;;5019564;28;20025;-67
2022/05/23 00:20:27;;;;;;;39.83;16.65;;;;;;;;;;5031302;28;20029;-67
2022/05/23 00:22:53;;;;;;;36.05;16.52;;;;;;;;;;5032700;28;20029;-67
2022/05/23 00:25:20;;;;;;;40.40;17.35;;;;;;;;;;5033234;28;20037;-66
2022/05/23 00:27:46;;;;;;;38.88;17.48;;;;;;;;;;5019120;28;20072;-67
2022/05/23 00:30:14;;;;;;;38.80;17.23;;;;;;;;;;5031907;28;20512;-67
2022/05/23 00:35:25;;;;;;;41.90;17.13;;;;;;;;;;5033885;28;20044;-67
2022/05/23 00:37:53;;;;;;;29.33;15.15;;;;;;;;;;5032735;28;20370;-67
2022/05/23 00:40:31;;;;;;;38.22;16.77;;;;;;;;;;5032976;28;20052;-68
2022/05/23 00:43:13;;;;;;;38.95;17.52;;;;;;;;;;5020112;28;20520;-68
2022/05/23 00:45:44;;;;;;;41.28;17.35;;;;;;;;;;5032710;28;20038;-68
2022/05/23 00:48:10;;;;;;;33.88;16.40;;;;;;;;;;5031909;28;20075;-68
2022/05/23 00:50:37;;;;;;;39.28;17.38;;;;;;;;;;5033135;28;20084;-68
2022/05/23 00:53:04;;;;;;;37.53;17.17;;;;;;;;;;5031737;28;20029;-68
2022/05/23 00:55:32;;;;;;;40.50;17.27;;;;;;;;;;5033778;28;20029;-68
2022/05/23 00:58:27;;;;;;;38.75;17.25;;;;;;;;;;5032864;28;20038;-68
2022/05/23 01:00:56;;;;;;;36.03;16.88;;;;;;;;;;5005079;28;20047;-68
2022/05/23 01:03:22;;;;;;;36.88;17.25;;;;;;;;;;5032403;28;20021;-68
2022/05/23 01:05:51;;;;;;;34.70;17.58;;;;;;;;;;5033132;28;20044;-68
2022/05/23 01:08:18;;;;;;;38.00;16.90;;;;;;;;;;5033573;28;20135;-68
2022/05/23 01:10:45;;;;;;;41.10;17.85;;;;;;;;;;5031784;28;20030;-68
2022/05/23 01:13:11;;;;;;;42.22;16.90;;;;;;;;;;5032234;28;20084;-68
2022/05/23 01:15:38;;;;;;;37.53;19.33;;;;;;;;;;5033185;28;20120;-68
2022/05/23 01:18:04;;;;;;;40.58;17.15;;;;;;;;;;5032045;28;20044;-68
2022/05/23 01:20:30;;;;;;;38.15;17.02;;;;;;;;;;5032213;28;20029;-68
2022/05/23 01:22:59;;;;;;;43.33;17.35;;;;;;;;;;5032347;28;20091;-68
2022/05/23 01:25:28;;;;;;;34.05;17.05;;;;;;;;;;5032152;28;20428;-68
2022/05/23 01:27:54;;;;;;;38.00;15.60;;;;;;;;;;5031951;28;20138;-67
2022/05/23 01:30:21;;;;;;;31.98;16.83;;;;;;;;;;5032016;28;20036;-68
2022/05/23 01:32:47;;;;;;;37.47;17.00;;;;;;;;;;5034079;28;20025;-68
2022/05/23 01:35:13;;;;;;;35.13;18.02;;;;;;;;;;5033493;28;20523;-67
2022/05/23 01:37:39;;;;;;;33.35;16.45;;;;;;;;;;5032455;28;20044;-67
2022/05/23 01:40:07;;;;;;;36.67;16.42;;;;;;;;;;5032973;28;20029;-68
2022/05/23 01:42:33;;;;;;;32.20;16.65;;;;;;;;;;5031971;28;20077;-68
2022/05/23 01:44:59;;;;;;;36.42;16.92;;;;;;;;;;5031268;28;20034;-68
2022/05/23 01:47:25;;;;;;;35.40;16.58;;;;;;;;;;5033369;28;20038;-68
2022/05/23 01:49:51;;;;;;;36.05;17.05;;;;;;;;;;5031703;28;20037;-67
2022/05/23 01:52:18;;;;;;;34.92;16.83;;;;;;;;;;5032276;28;20040;-68
2022/05/23 01:54:44;;;;;;;38.13;16.13;;;;;;;;;;5032082;28;20030;-68
2022/05/23 01:57:11;;;;;;;38.15;15.65;;;;;;;;;;5032271;28;20546;-68
2022/05/23 02:02:38;;;;;;;29.00;14.98;;;;;;;;;;4981591;28;20051;-68
2022/05/23 02:05:05;;;;;;;35.35;16.77;;;;;;;;;;4987428;28;20108;-68
2022/05/23 02:07:31;;;;;;;38.50;15.50;;;;;;;;;;4993962;28;20488;-68
2022/05/23 02:09:57;;;;;;;37.38;16.15;;;;;;;;;;4991371;28;20058;-67
2022/05/23 02:12:23;;;;;;;35.25;15.65;;;;;;;;;;4978059;28;20031;-68
2022/05/23 02:14:49;;;;;;;29.90;14.80;;;;;;;;;;4981666;28;20187;-68
2022/05/23 02:17:16;;;;;;;27.90;15.10;;;;;;;;;;4989032;28;20510;-68
2022/05/23 02:19:42;;;;;;;34.70;15.00;;;;;;;;;;4991783;28;20059;-68
2022/05/23 02:22:09;;;;;;;38.83;15.35;;;;;;;;;;4992453;28;20046;-68
2022/05/23 02:24:35;;;;;;;31.90;14.55;;;;;;;;;;4992900;28;20031;-68
2022/05/23 02:27:01;;;;;;;37.60;14.50;;;;;;;;;;4979613;28;20057;-68
2022/05/23 02:29:27;;;;;;;28.33;13.93;;;;;;;;;;4990472;28;20045;-67
2022/05/23 02:31:54;;;;;;;32.65;13.55;;;;;;;;;;4995336;28;20520;-68
2022/05/23 02:34:20;;;;;;;31.83;13.43;;;;;;;;;;4992315;28;20029;-68
2022/05/23 02:36:47;;;;;;;34.50;14.50;;;;;;;;;;5005797;28;20066;-68
2022/05/23 02:39:13;;;;;;;29.42;13.13;;;;;;;;;;5015142;28;20454;-68
2022/05/23 02:41:39;;;;;;;29.67;13.98;;;;;;;;;;5036376;28;20040;-68
2022/05/23 02:44:06;;;;;;;29.70;13.30;;;;;;;;;;5035197;28;20055;-68
2022/05/23 02:46:32;;;;;;;31.80;14.90;;;;;;;;;;5034908;28;20106;-68
2022/05/23 02:48:59;;;;;;;27.33;12.77;;;;;;;;;;5036423;28;20051;-68
2022/05/23 02:51:25;;;;;;;25.13;13.32;;;;;;;;;;5034343;28;20049;-68
2022/05/23 02:53:52;;;;;;;23.88;13.73;;;;;;;;;;5022056;28;20520;-68
2022/05/23 02:56:18;;;;;;;30.35;14.27;;;;;;;;;;5031678;28;20112;-68
2022/05/23 02:58:45;;;;;;;28.55;13.98;;;;;;;;;;5035107;28;20044;-68
2022/05/23 03:01:11;;;;;;;31.25;13.63;;;;;;;;;;5034577;28;20022;-68
2022/05/23 03:03:39;;;;;;;26.05;13.63;;;;;;;;;;5034833;28;20045;-68
2022/05/23 03:06:05;;;;;;;31.05;13.32;;;;;;;;;;5035614;28;20048;-68
2022/05/23 03:08:32;;;;;;;24.02;13.27;;;;;;;;;;5034229;28;20049;-68
2022/05/23 03:10:59;;;;;;;26.65;14.02;;;;;;;;;;5034059;28;20025;-68
2022/05/23 03:13:26;;;;;;;31.33;13.07;;;;;;;;;;5033314;28;20397;-68
2022/05/23 03:15:52;;;;;;;33.75;13.35;;;;;;;;;;5034608;28;20037;-68
2022/05/23 03:18:18;;;;;;;28.85;12.98;;;;;;;;;;5033692;28;20041;-68
2022/05/23 03:20:44;;;;;;;41.35;16.02;;;;;;;;;;5034186;28;20051;-68
2022/05/23 03:29:01;;;;;;;26.88;13.68;;;;;;;;;;4986161;28;20062;-68
2022/05/23 03:31:28;;;;;;;30.55;14.05;;;;;;;;;;4980048;28;20081;-67
2022/05/23 03:33:54;;;;;;;26.83;13.57;;;;;;;;;;4961101;28;20116;-68
2022/05/23 03:36:21;;;;;;;29.13;14.35;;;;;;;;;;4975979;28;20035;-68
2022/05/23 03:38:47;;;;;;;32.42;16.05;;;;;;;;;;4982365;28;20072;-67
2022/05/23 03:41:14;;;;;;;27.25;15.85;;;;;;;;;;4990600;28;20112;-68
2022/05/23 03:43:40;;;;;;;34.38;15.38;;;;;;;;;;4991648;28;20061;-67
2022/05/23 03:46:10;;;;;;;27.08;15.48;;;;;;;;;;4990505;28;20045;-67
2022/05/23 03:48:37;;;;;;;29.60;15.70;;;;;;;;;;4990969;28;20034;-66
2022/05/23 03:51:03;;;;;;;30.55;14.98;;;;;;;;;;4991766;28;20132;-69
2022/05/23 03:53:30;;;;;;;29.85;15.02;;;;;;;;;;4990188;28;20030;-67
2022/05/23 03:55:57;;;;;;;35.83;15.73;;;;;;;;;;4990769;28;20537;-68
2022/05/23 03:58:23;;;;;;;30.92;15.80;;;;;;;;;;4990403;28;20030;-67
2022/05/23 04:00:50;;;;;;;32.60;17.35;;;;;;;;;;4975421;28;20026;-67
2022/05/23 04:03:16;;;;;;;42.42;18.33;;;;;;;;;;5017678;28;20527;-66
2022/05/23 04:05:43;;;;;;;33.67;17.30;;;;;;;;;;5033682;28;20033;-67
2022/05/23 04:08:09;;;;;;;36.65;17.77;;;;;;;;;;5034457;28;20044;-67
2022/05/23 04:10:35;;;;;;;35.22;17.50;;;;;;;;;;5035013;28;20422;-67
2022/05/23 04:13:02;;;;;;;31.98;17.23;;;;;;;;;;5033548;28;20037;-67
2022/05/23 04:15:31;;;;;;;41.78;18.67;;;;;;;;;;5031948;28;20108;-67
2022/05/23 04:17:58;;;;;;;34.72;18.90;;;;;;;;;;5031355;28;20044;-67
2022/05/23 04:20:24;;;;;;;34.72;19.30;;;;;;;;;;5032647;28;20095;-67
2022/05/23 04:22:51;;;;;;;38.25;19.67;;;;;;;;;;5034527;28;20035;-67
2022/05/23 04:25:17;;;;;;;38.40;20.05;;;;;;;;;;5033217;28;20025;-66
2022/05/23 04:27:43;;;;;;;37.63;18.77;;;;;;;;;;5032412;28;20029;-67
2022/05/23 04:30:10;;;;;;;36.10;18.33;;;;;;;;;;5032358;28;20405;-67
2022/05/23 04:35:22;;;;;;;39.22;18.02;;;;;;;;;;5033149;28;20572;-67
2022/05/23 04:37:49;;;;;;;42.80;19.55;;;;;;;;;;5033338;28;20056;-67
2022/05/23 04:40:17;;;;;;;41.72;19.33;;;;;;;;;;5033606;28;20048;-67
2022/05/23 04:42:43;;;;;;;43.13;19.08;;;;;;;;;;5031531;28;20033;-67
2022/05/23 04:45:10;;;;;;;35.63;18.70;;;;;;;;;;5031759;28;20037;-67
2022/05/23 04:50:21;;;;;;;30.60;18.65;;;;;;;;;;5031855;28;20111;-67
2022/05/23 04:52:47;;;;;;;40.58;18.50;;;;;;;;;;5032782;28;20061;-67
2022/05/23 04:55:14;;;;;;;47.67;19.63;;;;;;;;;;5032662;28;20481;-67
2022/05/23 04:57:40;;;;;;;42.78;18.83;;;;;;;;;;5032046;28;20045;-71
2022/05/23 05:00:09;;;;;;;35.97;18.33;;;;;;;;;;5031242;28;20061;-70
2022/05/23 05:02:36;;;;;;;32.28;17.13;;;;;;;;;;5033797;28;20034;-70
2022/05/23 05:05:03;;;;;;;39.42;18.05;;;;;;;;;;5032069;28;20704;-70
2022/05/23 05:07:29;;;;;;;39.22;19.05;;;;;;;;;;5031853;28;20099;-66
2022/05/23 05:09:55;;;;;;;38.58;19.83;;;;;;;;;;5031538;28;20037;-63
2022/05/23 05:12:22;;;;;;;34.28;18.55;;;;;;;;;;5030930;28;20026;-64
2022/05/23 05:14:48;;;;;;;34.20;18.40;;;;;;;;;;5026536;28;20045;-64
2022/05/23 05:17:14;;;;;;;37.55;18.30;;;;;;;;;;5029594;28;20392;-64
2022/05/23 05:19:41;;;;;;;35.53;18.50;;;;;;;;;;5033558;28;20069;-63
2022/05/23 05:22:07;;;;;;;33.45;18.48;;;;;;;;;;5032695;28;20064;-63
2022/05/23 05:24:33;;;;;;;43.35;19.13;;;;;;;;;;5031586;28;20025;-63
2022/05/23 05:27:00;;;;;;;32.03;18.27;;;;;;;;;;5034032;28;20124;-62
2022/05/23 05:29:26;;;;;;;30.88;18.45;;;;;;;;;;5033322;28;20060;-63
2022/05/23 05:31:52;;;;;;;33.97;18.13;;;;;;;;;;5032581;28;20489;-65
2022/05/23 05:34:23;;;;;;;34.45;19.52;;;;;;;;;;5036654;28;20557;-65
2022/05/23 05:36:52;;;;;;;36.78;19.00;;;;;;;;;;5021377;28;20507;-63
2022/05/23 05:39:20;;;;;;;34.00;18.60;;;;;;;;;;5033542;28;20489;-62
2022/05/23 05:42:09;;;;;;;37.70;19.40;;;;;;;;;;5038551;28;20025;-62
2022/05/23 05:44:40;;;;;;;41.08;19.67;;;;;;;;;;5025426;28;20140;-62
2022/05/23 05:47:09;;;;;;;35.17;20.40;;;;;;;;;;5038081;28;20147;-63
2022/05/23 05:49:37;;;;;;;33.28;19.17;;;;;;;;;;5035074;28;20026;-64
2022/05/23 05:52:05;;;;;;;36.88;19.20;;;;;;;;;;5034812;28;20397;-63
2022/05/23 05:54:32;;;;;;;37.42;19.42;;;;;;;;;;5034328;28;20044;-63
2022/05/23 05:57:00;;;;;;;41.72;18.65;;;;;;;;;;5031500;28;20030;-63
2022/05/23 05:59:26;;;;;;;43.03;19.48;;;;;;;;;;5035052;28;20029;-63
2022/05/23 06:01:52;;;;;;;38.60;20.27;;;;;;;;;;5033246;28;20033;-63
2022/05/23 06:04:19;;;;;;;38.85;20.00;;;;;;;;;;5037290;28;20029;-62
2022/05/23 06:12:14;;;;;;;35.85;19.25;;;;;;;;;;5034284;28;20420;-65
2022/05/23 06:14:41;;;;;;;39.10;19.38;;;;;;;;;;5035312;28;20029;-65
2022/05/23 06:17:08;;;;;;;43.95;19.02;;;;;;;;;;5034647;28;20567;-65
2022/05/23 06:19:43;;;;;;;37.85;19.67;;;;;;;;;;5036680;28;20405;-65
2022/05/23 06:22:10;;;;;;;44.05;20.60;;;;;;;;;;5033353;28;20036;-65
2022/05/23 06:24:36;;;;;;;42.50;21.38;;;;;;;;;;5032904;28;20025;-65
2022/05/23 06:27:03;;;;;;;48.13;20.45;;;;;;;;;;5032298;28;20497;-65
2022/05/23 06:29:30;;;;;;;38.35;20.30;;;;;;;;;;5031925;28;20021;-65
2022/05/23 06:31:56;;;;;;;53.35;20.80;;;;;;;;;;5032595;28;20087;-65
2022/05/23 06:34:22;;;;;;;38.15;19.55;;;;;;;;;;5034623;28;20026;-68
2022/05/23 06:36:48;;;;;;;38.60;18.50;;;;;;;;;;5035243;28;20033;-71
2022/05/23 06:39:14;;;;;;;40.92;19.50;;;;;;;;;;5030656;28;20116;-71
2022/05/23 06:41:40;;;;;;;34.58;17.98;;;;;;;;;;5034922;28;20045;-72
2022/05/23 06:44:07;;;;;;;33.03;16.65;;;;;;;;;;5034847;28;20052;-67
2022/05/23 06:46:33;;;;;;;28.38;16.42;;;;;;;;;;5035896;28;20556;-67
2022/05/23 06:48:59;;;;;;;39.55;16.35;;;;;;;;;;5035037;28;20043;-67
2022/05/23 06:51:25;;;;;;;36.85;16.88;;;;;;;;;;5034384;28;20022;-67
2022/05/23 06:53:52;;;;;;;42.30;16.55;;;;;;;;;;5035879;28;20029;-67
2022/05/23 06:56:18;;;;;;;45.83;18.67;;;;;;;;;;5034973;28;20072;-67
2022/05/23 06:58:45;;;;;;;41.45;17.52;;;;;;;;;;5034952;28;20033;-68
2022/05/23 07:01:11;;;;;;;33.65;17.15;;;;;;;;;;5033705;28;20040;-67
2022/05/23 07:03:37;;;;;;;32.58;16.90;;;;;;;;;;5035019;28;20038;-67
2022/05/23 07:14:20;;;;;;;36.28;15.77;;;;;;;;;;5034978;28;20087;-67
2022/05/23 07:16:47;;;;;;;31.63;14.63;;;;;;;;;;5034530;28;20571;-68
2022/05/23 07:19:14;;;;;;;31.88;14.63;;;;;;;;;;5034814;28;20047;-67
2022/05/23 07:21:40;;;;;;;37.92;14.10;;;;;;;;;;5035576;28;20026;-67
2022/05/23 07:24:06;;;;;;;40.30;15.35;;;;;;;;;;5034943;28;20029;-68
2022/05/23 07:26:32;;;;;;;32.67;13.75;;;;;;;;;;5035790;28;20548;-67
2022/05/23 07:28:59;;;;;;;31.27;12.68;;;;;;;;;;5034436;28;20029;-67
2022/05/23 07:31:26;;;;;;;44.78;16.00;;;;;;;;;;5034608;28;20033;-67
2022/05/23 07:33:52;;;;;;;32.40;16.10;;;;;;;;;;5034475;28;20504;-68
2022/05/23 07:36:19;;;;;;;24.20;12.88;;;;;;;;;;5032694;28;20112;-67
2022/05/23 07:38:45;;;;;;;29.75;13.38;;;;;;;;;;5035773;28;20029;-68
2022/05/23 07:41:12;;;;;;;30.88;12.93;;;;;;;;;;5034394;28;20068;-66
2022/05/23 07:43:39;;;;;;;32.00;13.48;;;;;;;;;;5034266;28;20036;-65
2022/05/23 07:46:10;;;;;;;34.00;14.35;;;;;;;;;;5034779;28;20390;-66
2022/05/23 07:48:45;;;;;;;31.40;14.00;;;;;;;;;;5033100;28;20479;-65
2022/05/23 07:51:12;;;;;;;26.30;13.48;;;;;;;;;;5033436;28;20032;-65
2022/05/23 08:01:54;;;;;;;28.08;14.18;;;;;;;;;;5035296;28;20553;-66
2022/05/23 08:04:20;;;;;;;28.27;13.75;;;;;;;;;;5035494;28;20447;-66
2022/05/23 08:06:46;;;;;;;30.42;14.52;;;;;;;;;;5017904;28;20037;-66
2022/05/23 08:09:12;;;;;;;31.55;13.85;;;;;;;;;;5032827;28;20053;-65
2022/05/23 08:11:39;;;;;;;33.35;14.88;;;;;;;;;;5033909;28;20107;-66
2022/05/23 08:14:06;;;;;;;33.78;13.65;;;;;;;;;;5033745;28;20033;-66
2022/05/23 08:16:32;;;;;;;33.25;14.65;;;;;;;;;;5034714;28;20075;-65
2022/05/23 08:18:58;;;;;;;31.77;14.98;;;;;;;;;;5033440;28;20528;-65
2022/05/23 08:21:25;;;;;;;35.55;15.27;;;;;;;;;;5032472;28;20053;-66
2022/05/23 08:23:51;;;;;;;30.52;14.93;;;;;;;;;;5034490;28;20025;-66
2022/05/23 08:26:18;;;;;;;30.23;14.57;;;;;;;;;;5033320;28;20187;-65
2022/05/23 08:28:44;;;;;;;28.63;14.75;;;;;;;;;;5033071;28;20547;-66
2022/05/23 08:31:10;;;;;;;33.78;14.68;;;;;;;;;;5033475;28;20060;-65
2022/05/23 08:33:36;;;;;;;33.28;14.95;;;;;;;;;;5033578;28;20030;-66
2022/05/23 08:36:02;;;;;;;33.42;15.07;;;;;;;;;;5032565;28;20094;-66
2022/05/23 08:38:28;;;;;;;35.53;14.63;;;;;;;;;;5031896;28;20029;-66
2022/05/23 08:41:07;;;;;;;36.50;15.75;;;;;;;;;;5033965;28;20037;-67
2022/05/23 08:43:41;;;;;;;28.25;13.90;;;;;;;;;;5034565;28;20120;-67
2022/05/23 08:46:10;;;;;;;33.25;15.13;;;;;;;;;;5032921;28;20513;-68
2022/05/23 08:48:43;;;;;;;30.63;15.73;;;;;;;;;;5033150;28;20500;-68
2022/05/23 08:51:23;;;;;;;38.25;14.77;;;;;;;;;;5032131;28;20124;-67
2022/05/23 08:54:00;;;;;;;35.60;15.95;;;;;;;;;;5033353;28;20044;-67
2022/05/23 08:56:37;;;;;;;37.60;16.20;;;;;;;;;;5034207;28;20037;-67
2022/05/23 08:59:05;;;;;;;35.17;14.60;;;;;;;;;;5032898;28;20048;-68
2022/05/23 09:01:39;;;;;;;37.30;15.38;;;;;;;;;;5032942;28;20448;-68
2022/05/23 09:04:13;;;;;;;33.65;15.00;;;;;;;;;;5031886;28;20411;-68
2022/05/23 09:06:39;;;;;;;;;;;;;;;;;;5032848;28;20041;-68
2022/05/23 09:09:07;;;;;;;40.45;16.00;;;;;;;;;;5032255;28;19928;-67
2022/05/23 09:11:33;;;;;;;39.72;16.38;;;;;;;;;;5032724;28;20084;-68
2022/05/23 09:13:59;;;;;;;31.95;15.68;;;;;;;;;;5032841;28;20026;-68
2022/05/23 09:16:28;;;;;;;30.23;15.05;;;;;;;;;;5032859;28;20041;-67
2022/05/23 09:19:02;;;;;;;32.97;15.20;;;;;;;;;;5034443;28;20040;-67
2022/05/23 09:22:12;;;;;;;34.42;16.05;;;;;;;;;;5030258;28;20048;-68
2022/05/23 09:24:16;;;;;;;31.95;15.48;;;;;;;;;;5032345;28;20111;-67
2022/05/23 09:26:44;;;;;;;34.20;15.15;;;;;;;;;;5032939;28;20045;-67
2022/05/23 09:29:10;;;;;;;38.28;16.33;;;;;;;;;;5032459;28;20118;-67
2022/05/23 09:31:37;;;;;;;35.35;14.65;;;;;;;;;;5032755;28;20393;-67
2022/05/23 09:34:04;;;;;;;33.75;15.27;;;;;;;;;;5033554;28;20039;-67
2022/05/23 09:36:32;;;;;;;33.35;13.80;;;;;;;;;;5031768;28;20120;-67
2022/05/23 09:39:09;;;;;;;34.75;14.13;;;;;;;;;;5028195;28;20410;-68
2022/05/23 09:49:58;;;;;;;28.27;12.98;;;;;;;;;;5026214;28;20088;-68
2022/05/23 09:52:25;;;;;;;33.20;13.13;;;;;;;;;;5026803;28;20032;-67
2022/05/23 09:54:57;;;;;;;26.55;13.13;;;;;;;;;;5026554;28;20034;-68
2022/05/23 09:57:25;;;;;;;35.15;13.30;;;;;;;;;;5027447;28;20021;-68
2022/05/23 09:59:59;;;;;;;31.63;13.30;;;;;;;;;;5028364;28;20033;-67
2022/05/23 10:02:31;;;;;;;33.53;13.35;;;;;;;;;;5026403;28;20132;-67
2022/05/23 10:04:58;;;;;;;30.08;13.55;;;;;;;;;;5026095;28;20044;-68
2022/05/23 10:07:24;;;;;;;33.92;14.02;;;;;;;;;;5025355;28;20535;-68
2022/05/23 10:10:01;;;;;;;32.78;13.75;;;;;;;;;;5025505;28;20560;-68
2022/05/23 10:12:27;;;;;;;31.27;13.60;;;;;;;;;;5026152;28;20037;-68
2022/05/23 10:15:05;;;;;;;33.65;13.10;;;;;;;;;;5027003;28;20034;-67
2022/05/23 10:17:34;;;;;;;31.33;13.90;;;;;;;;;;5025473;28;20033;-68
2022/05/23 10:20:18;;;;;;;28.60;13.15;;;;;;;;;;5027212;28;20033;-67
2022/05/23 10:22:56;;;;;;;28.60;12.95;;;;;;;;;;5027112;28;20115;-68
2022/05/23 10:25:24;;;;;;;29.85;13.43;;;;;;;;;;5029289;28;20040;-68
2022/05/23 10:27:55;;;;;;;25.25;12.60;;;;;;;;;;5029172;28;20026;-68
2022/05/23 10:30:23;;;;;;;26.02;13.38;;;;;;;;;;5030986;28;20029;-67
2022/05/23 10:32:53;;;;;;;31.02;14.18;;;;;;;;;;5030680;28;20044;-68
2022/05/23 10:35:30;;;;;;;27.42;13.38;;;;;;;;;;5029761;28;20029;-68
2022/05/23 10:43:28;;;;;;;27.70;14.60;;;;;;;;;;5029069;28;20071;-67
2022/05/23 10:46:01;;;;;;;34.30;14.48;;;;;;;;;;5029663;28;20409;-68
2022/05/23 10:48:37;;;;;;;27.90;14.45;;;;;;;;;;5029795;28;20025;-68
2022/05/23 10:51:22;;;;;;;40.08;14.55;;;;;;;;;;5029220;28;20132;-68
2022/05/23 10:54:00;;;;;;;30.27;13.60;;;;;;;;;;5028005;28;20045;-67
2022/05/23 10:56:26;;;;;;;32.90;14.32;;;;;;;;;;5028962;28;20037;-68
2022/05/23 10:58:52;;;;;;;39.15;14.77;;;;;;;;;;5029386;28;20037;-68
2022/05/23 11:01:18;;;;;;;41.10;14.63;;;;;;;;;;5028469;28;20030;-67
2022/05/23 11:03:50;;;;;;;33.25;14.00;;;;;;;;;;5029419;28;20032;-68
2022/05/23 11:06:40;;;;;;;33.72;14.20;;;;;;;;;;5027114;28;20041;-68
2022/05/23 11:09:26;;;;;;;32.65;14.18;;;;;;;;;;5008686;28;20045;-68
2022/05/23 11:12:21;;;;;;;31.52;13.88;;;;;;;;;;5006998;28;20406;-68
2022/05/23 11:14:53;;;;;;;33.10;14.98;;;;;;;;;;4991378;28;20469;-69
2022/05/23 11:17:32;;;;;;;35.28;13.50;;;;;;;;;;5007318;28;20037;-68
2022/05/23 11:20:04;;;;;;;28.40;13.32;;;;;;;;;;5004816;28;20038;-68
2022/05/23 11:23:04;;;;;;;27.42;13.40;;;;;;;;;;5007308;28;20117;-67
2022/05/23 11:25:35;;;;;;;38.25;15.35;;;;;;;;;;4928675;29;20051;-68
2022/05/23 11:33:49;;;;;;;40.45;15.90;;;;;;;;;;4929820;29;20051;-67
2022/05/23 11:36:23;;;;;;;36.95;16.35;;;;;;;;;;4911617;29;20036;-68
2022/05/23 11:38:51;;;;;;;35.58;16.42;;;;;;;;;;4929470;29;20146;-68
2022/05/23 11:41:35;;;;;;;44.38;18.63;;;;;;;;;;4930079;29;20056;-65
2022/05/23 11:44:12;;;;;;;38.38;17.70;;;;;;;;;;4929300;29;20035;-66
2022/05/23 11:47:05;;;;;;;38.80;18.38;;;;;;;;;;4954580;28;20051;-66
2022/05/23 11:50:00;;;;;;;37.25;17.40;;;;;;;;;;4909838;29;20119;-66
2022/05/23 11:52:32;;;;;;;36.30;17.83;;;;;;;;;;4902295;29;20558;-66
2022/05/23 11:54:58;;;;;;;42.42;18.02;;;;;;;;;;4894427;29;20436;-65
2022/05/23 11:57:33;;;;;;;37.97;18.10;;;;;;;;;;4911038;29;20054;-66
2022/05/23 12:00:01;;;;;;;39.40;18.52;;;;;;;;;;4912374;28;20171;-66
2022/05/23 12:02:28;;;;;;;41.90;19.00;;;;;;;;;;4986989;28;20034;-66
2022/05/23 12:04:55;;;;;;;42.42;18.83;;;;;;;;;;4987039;28;20368;-66
2022/05/23 12:07:41;;;;;;;46.03;19.00;;;;;;;;;;4987052;28;20109;-67
2022/05/23 12:10:24;;;;;;;39.92;17.75;;;;;;;;;;4973601;28;20042;-66
2022/05/23 12:12:53;;;;;;;36.13;18.80;;;;;;;;;;4971822;28;20034;-66
2022/05/23 12:15:38;;;;;;;31.17;18.13;;;;;;;;;;4987664;28;20531;-66
2022/05/23 12:18:04;;;;;;;34.92;17.48;;;;;;;;;;4985998;28;20409;-67
2022/05/23 12:20:32;;;;;;;31.70;16.20;;;;;;;;;;4984848;28;20038;-67
2022/05/23 12:23:18;;;;;;;26.40;14.90;;;;;;;;;;4986598;28;20038;-67
2022/05/23 12:26:04;;;;;;;27.00;14.30;;;;;;;;;;4996864;28;20037;-66
2022/05/23 12:28:41;;;;;;;29.85;15.60;;;;;;;;;;5027049;28;20033;-66
2022/05/23 12:31:11;;;;;;;32.80;15.32;;;;;;;;;;5027529;28;20056;-66
2022/05/23 12:33:39;;;;;;;31.25;14.82;;;;;;;;;;5027443;28;20044;-66
2022/05/23 12:36:11;;;;;;;34.50;15.48;;;;;;;;;;5029055;28;20043;-66
2022/05/23 12:39:03;;;;;;;40.35;15.82;;;;;;;;;;5026523;28;20025;-66
2022/05/23 12:41:35;;;;;;;30.70;14.32;;;;;;;;;;4938614;28;20503;-66
2022/05/23 12:44:01;;;;;;;31.30;13.57;;;;;;;;;;4935952;29;20035;-66
2022/05/23 12:46:32;;;;;;;36.55;14.48;;;;;;;;;;4936727;29;20051;-66
2022/05/23 12:48:58;;;;;;;28.17;13.95;;;;;;;;;;4933692;29;20042;-66
2022/05/23 12:51:24;;;;;;;34.33;14.48;;;;;;;;;;4931406;29;20031;-66
2022/05/23 12:54:08;;;;;;;34.38;13.90;;;;;;;;;;4936174;29;20496;-66
2022/05/23 12:56:43;;;;;;;29.13;12.95;;;;;;;;;;4936944;29;20070;-66
2022/05/23 12:59:15;;;;;;;29.60;14.35;;;;;;;;;;4936550;29;20055;-66
2022/05/23 13:01:43;;;;;;;26.50;13.23;;;;;;;;;;4936948;29;20467;-66
2022/05/23 13:04:09;;;;;;;27.48;13.10;;;;;;;;;;4931138;29;20423;-66
2022/05/23 13:06:56;;;;;;;26.13;12.82;;;;;;;;;;4938784;29;20576;-66
2022/05/23 13:09:44;;;;;;;27.75;13.15;;;;;;;;;;4946390;29;20062;-66
2022/05/23 13:12:14;;;;;;;26.30;13.25;;;;;;;;;;4936634;29;20047;-66
2022/05/23 13:14:51;;;;;;;34.63;13.65;;;;;;;;;;4950182;29;20507;-67
2022/05/23 13:17:35;;;;;;;25.80;12.90;;;;;;;;;;4949332;28;20440;-66
2022/05/23 13:22:47;;;;;;;29.40;12.70;;;;;;;;;;5030218;28;20037;-66
2022/05/23 13:25:13;;;;;;;23.60;12.07;;;;;;;;;;5027217;28;20032;-67
2022/05/23 13:27:47;;;;;;;24.63;12.18;;;;;;;;;;5029651;28;20051;-66
2022/05/23 13:30:16;;;;;;;26.75;13.95;;;;;;;;;;5031703;28;20488;-67
2022/05/23 13:32:42;;;;;;;28.02;12.45;;;;;;;;;;5029875;28;20324;-67
2022/05/23 13:35:18;;;;;;;27.65;12.75;;;;;;;;;;5029811;28;20025;-66
2022/05/23 13:37:44;;;;;;;30.08;12.68;;;;;;;;;;5029301;28;20029;-67
2022/05/23 13:40:14;;;;;;;28.50;12.05;;;;;;;;;;5030736;28;20037;-68
2022/05/23 13:42:40;;;;;;;21.25;11.77;;;;;;;;;;5031268;28;20113;-68
2022/05/23 13:45:16;;;;;;;22.05;11.43;;;;;;;;;;5031804;28;20060;-68
2022/05/23 13:47:48;;;;;;;25.30;11.20;;;;;;;;;;5030498;28;20051;-68
2022/05/23 13:50:18;;;;;;;30.50;11.80;;;;;;;;;;5032522;28;20037;-68
2022/05/23 13:52:53;;;;;;;26.67;12.02;;;;;;;;;;5033505;28;20501;-68
2022/05/23 13:55:25;;;;;;;23.95;11.57;;;;;;;;;;5036442;28;20574;-68
2022/05/23 13:57:58;;;;;;;27.70;12.90;;;;;;;;;;5020223;28;20028;-68
2022/05/23 14:00:27;;;;;;;31.15;13.38;;;;;;;;;;5032045;28;20059;-68
2022/05/23 14:03:03;;;;;;;25.45;12.27;;;;;;;;;;5036754;28;20037;-68
2022/05/23 14:05:31;;;;;;;29.45;12.95;;;;;;;;;;5036264;28;20029;-68
2022/05/23 14:07:58;;;;;;;31.38;13.43;;;;;;;;;;5037598;28;20076;-68
2022/05/23 14:10:26;;;;;;;30.23;12.77;;;;;;;;;;5035348;28;20539;-68
2022/05/23 14:12:53;;;;;;;24.75;11.93;;;;;;;;;;5035907;28;20072;-67
2022/05/23 14:15:23;;;;;;;24.50;11.40;;;;;;;;;;5035179;28;20470;-68
2022/05/23 14:17:51;;;;;;;24.52;11.98;;;;;;;;;;5035619;28;20421;-68
2022/05/23 14:20:35;;;;;;;29.58;12.27;;;;;;;;;;5031364;28;20025;-68
2022/05/23 14:23:01;;;;;;;34.47;14.25;;;;;;;;;;5032585;28;20040;-68
2022/05/23 14:25:31;;;;;;;24.17;12.48;;;;;;;;;;5036775;28;20046;-68
2022/05/23 14:28:10;;;;;;;37.75;13.40;;;;;;;;;;5029614;28;20116;-67
2022/05/23 14:30:37;;;;;;;27.50;12.63;;;;;;;;;;5029195;28;20437;-68
2022/05/23 14:33:22;;;;;;;24.65;11.85;;;;;;;;;;5031370;28;20091;-68
2022/05/23 14:35:53;;;;;;;25.00;12.00;;;;;;;;;;5031050;28;20106;-68
2022/05/23 14:38:42;;;;;;;27.95;12.07;;;;;;;;;;5026745;28;20037;-67
2022/05/23 14:41:20;;;;;;;27.50;11.27;;;;;;;;;;5019560;28;20416;-68
2022/05/23 14:43:47;;;;;;;31.90;11.50;;;;;;;;;;5028400;28;20155;-68
2022/05/23 14:46:23;;;;;;;23.40;11.65;;;;;;;;;;5029188;28;20045;-68
2022/05/23 14:49:02;;;;;;;29.50;11.48;;;;;;;;;;5026937;28;20034;-68
2022/05/23 14:51:30;;;;;;;23.38;11.32;;;;;;;;;;5027646;28;20048;-68
2022/05/23 14:56:44;;;;;;;25.88;11.00;;;;;;;;;;5028639;28;20172;-68
2022/05/23 15:02:01;;;;;;;21.55;10.15;;;;;;;;;;5028444;28;20109;-68
2022/05/23 15:04:29;;;;;;;22.85;10.73;;;;;;;;;;5028429;28;20029;-68
2022/05/23 15:06:57;;;;;;;20.50;10.38;;;;;;;;;;5029026;28;20038;-68
2022/05/23 15:09:24;;;;;;;18.52;9.27;;;;;;;;;;5029328;28;20080;-68
2022/05/23 15:11:51;;;;;;;21.08;9.65;;;;;;;;;;5028635;28;20037;-68
2022/05/23 15:14:17;;;;;;;20.10;8.80;;;;;;;;;;5027151;28;20034;-68
2022/05/23 15:16:43;;;;;;;21.70;8.73;;;;;;;;;;5027956;28;20501;-68
2022/05/23 15:19:10;;;;;;;21.50;9.70;;;;;;;;;;5027361;28;20063;-68
2022/05/23 15:21:37;;;;;;;16.48;8.60;;;;;;;;;;5028411;28;20037;-68
2022/05/23 15:24:03;;;;;;;17.75;8.05;;;;;;;;;;5028967;28;20040;-68
2022/05/23 15:26:31;;;;;;;26.92;8.95;;;;;;;;;;5029172;28;20033;-68
2022/05/23 15:28:58;;;;;;;18.42;9.75;;;;;;;;;;5028752;28;20037;-68
2022/05/23 15:31:25;;;;;;;20.83;10.18;;;;;;;;;;5028668;28;20093;-67
2022/05/23 15:33:52;;;;;;;17.05;9.95;;;;;;;;;;5028378;28;20026;-67
2022/05/23 15:36:18;;;;;;;22.80;9.45;;;;;;;;;;5021571;28;20544;-68
2022/05/23 15:38:45;;;;;;;18.15;9.20;;;;;;;;;;5026159;28;20429;-68